WEATHER DATA

YESTERDAY
Time Temp. Dewp. Hum. Bar. 1h Prec. 24h Prec.
00:09 1.9 1.5 97 1012.7 0.0000 0.0000
00:19 1.9 1.3 96 1012.8 0.0000 0.0000
00:29 1.8 1.2 96 1012.9 0.0000 0.0000
00:39 1.8 1.2 96 1012.8 0.0000 0.0000
00:49 1.8 1.2 96 1012.8 0.0000 0.0000
00:59 1.7 1.1 96 1012.6 0.0000 0.0000
01:09 1.6 0.9 95 1012.6 0.0000 0.0000
01:19 1.6 1 96 1012.4 0.0000 0.0000
01:29 1.7 1.1 96 1012.3 0.0000 0.0000
01:40 1.6 0.9 95 1012.3 0.0000 0.0000
01:50 1.6 1 96 1012.4 0.0000 0.0000
01:59 1.6 1 96 1012.4 0.0000 0.0000
02:09 1.5 0.9 96 1012.3 0.0000 0.0000
02:25 1.4 1 97 1012.3 0.0000 0.0000
02:34 1.4 1 97 1012 0.0000 0.0000
02:44 1.4 1.1 98 1012 0.0000 0.0000
02:55 1.4 1.1 98 1011.9 0.0000 0.0000
03:05 1.4 1.3 99 1011.5 0.0000 0.0000
03:15 1.4 1.3 99 1011.2 0.0000 0.0000
03:25 1.4 1.3 99 1011.2 0.0000 0.0000
03:35 1.3 1.2 99 1011.5 0.0000 0.0000
03:45 1.3 1.2 99 1011.2 0.0000 0.0000
03:55 1.4 1.4 100 1011.1 0.0000 0.0000
04:05 1.5 1.5 100 1011.3 0.0000 0.0000
04:15 1.5 1.5 100 1011.2 0.0000 0.0000
04:25 1.6 1.6 100 1011.1 0.0000 0.0000
04:36 1.6 1.6 100 1011.1 0.0000 0.0000
04:48 1.7 1.7 100 1011.2 0.5412 0.5000
04:59 1.7 1.7 100 1011.2 0.5412 0.5000
05:09 1.7 1.7 100 1011.2 0.5412 0.5000
05:18 1.7 1.7 100 1010.9 0.5412 0.5000
05:29 1.8 1.8 100 1010.6 0.5412 0.5000
05:39 1.9 1.9 100 1010.6 0.2165 0.5000
05:49 2 2 100 1010.5 0.1082 0.6000
05:58 2 2 100 1010.6 0.1082 0.6000
06:09 2 2 100 1010.6 0.1082 0.6000
06:29 1.7 1.7 100 1010.7 0.1082 0.6000
06:39 1.6 1.6 100 1010.6 0.1082 0.6000
06:49 1.6 1.6 100 1010.7 0.0000 0.6000
07:09 1.6 1.6 100 1010.6 0.1082 0.8000
07:20 1.6 1.6 100 1010.6 0.1082 0.8000
07:39 1.6 1.6 100 1010.4 0.1082 0.8000
07:50 1.5 1.5 100 1010.5 0.1082 0.8000
08:00 1.5 1.5 100 1010.3 0.1082 0.8000
08:10 1.5 1.5 100 1010.3 0.0000 0.8000
08:19 1.5 1.5 100 1010.4 0.0000 0.8000
08:30 1.5 1.5 100 1010.6 0.2165 1.0000
09:01 1.5 1.5 100 1011.1 0.5412 1.3000
09:12 1.5 1.5 100 1011.2 0.5412 1.3000
09:21 1.5 1.5 100 1011.1 0.3247 1.3000
09:41 1.6 1.6 100 1011.1 0.1082 1.3000
09:52 1.6 1.6 100 1011.1 0.0000 1.3000
10:01 1.6 1.6 100 1011.1 0.0000 1.3000
10:11 1.5 1.5 100 1011.1 0.0000 1.3000
10:27 1.4 1.4 100 1010.9 0.0000 1.3000
10:37 1.4 1.4 100 1011.1 0.0000 1.3000
10:46 1.4 1.4 100 1010.9 0.0000 1.3000
10:57 1.3 1.3 100 1010.8 0.1082 1.4000
11:07 1.3 1.3 100 1010.7 0.1082 1.4000
11:17 1.3 1.3 100 1010.5 0.1082 1.4000
11:27 1.2 1.2 100 1010.5 0.1082 1.4000
11:37 1.1 1.1 100 1010.3 0.1082 1.4000
11:52 1.2 1.2 100 1009.9 0.0000 1.4000
12:02 1.2 1.2 100 1009.9 0.0000 1.4000
12:13 1.2 1.2 100 1009.8 0.0000 1.4000
12:22 1.2 1.2 100 1009.6 0.0000 1.4000
12:32 1.1 1.1 100 1009.3 0.1082 1.5000
12:43 1.1 1.1 100 1009 0.1082 1.5000
12:53 1.1 1.1 100 1009.2 0.1082 1.5000
13:03 1.1 1.1 100 1008.9 0.1082 1.5000
13:13 1.1 1.1 100 1009 0.1082 1.5000
13:23 1 1 100 1009 0.1082 1.5000
13:33 1 1 100 1009 0.0000 1.5000
13:43 1 1 100 1008.9 0.0000 1.5000
13:53 1 1 100 1008.6 0.0000 1.5000
14:03 0.9 0.9 100 1008.6 0.0000 1.5000
14:13 0.9 0.9 100 1008.6 0.0000 1.5000
14:23 0.9 0.9 100 1008.4 0.0000 1.5000
14:34 0.9 0.9 100 1008.2 0.0000 1.5000
14:43 0.8 0.8 100 1008.3 0.0000 1.5000
14:58 0.7 0.7 100 1008.4 0.0000 1.5000
15:09 0.6 0.6 100 1008.5 0.0000 1.5000
15:18 0.5 0.5 100 1008.5 0.0000 1.5000
15:28 0.4 0.4 100 1008.3 0.0000 1.5000
15:39 0.4 0.4 100 1008.1 0.0000 1.5000
15:49 0.3 0.3 100 1008 0.0000 1.5000
15:59 0.2 0.2 100 1008 0.0000 1.5000
16:09 0.2 0.2 100 1007.8 0.0000 1.5000
16:29 0.2 0.2 100 1007.7 0.0000 1.5000
16:49 0.3 0.3 100 1007.8 0.0000 1.5000
16:59 0.3 0.3 100 1007.7 0.0000 1.5000
17:19 0.5 0.5 100 1007.6 0.0000 1.5000
17:29 0.5 0.5 100 1007.5 0.0000 1.5000
17:39 0.5 0.5 100 1007.5 0.0000 1.5000
17:49 0.5 0.5 100 1007.4 0.0000 1.5000
18:10 0.7 0.7 100 1007.5 0.0000 1.5000
18:19 0.7 0.6 99 1007.4 0.0000 1.5000
18:30 0.6 0.5 99 1007.5 0.0000 1.5000
18:50 0.6 0.5 99 1007.3 0.0000 1.5000
18:59 0.6 0.5 99 1007.2 0.0000 1.5000
19:20 0.6 0.5 99 1007.2 0.0000 1.5000
19:30 0.6 0.3 98 1007 0.0000 1.5000
19:40 0.6 0.3 98 1006.8 0.0000 1.5000
19:50 0.6 0.3 98 1006.7 0.0000 1.5000
20:00 0.6 0.3 98 1006.8 0.0000 1.5000
20:10 0.6 0.2 97 1006.9 0.0000 1.5000
20:21 0.6 0 96 1006.7 0.0000 1.5000
20:30 0.6 0 96 1006.6 0.0000 1.5000
20:40 0.6 0 96 1006.3 0.0000 1.5000
20:51 0.5 -0.2 95 1006.3 0.0000 1.5000
21:01 0.5 -0.2 95 1006.3 0.0000 1.5000
21:20 0.3 -0.5 94 1006.5 0.0000 1.5000
21:31 0.2 -0.6 94 1006.5 0.0000 1.5000
21:51 0.2 -1 91 1006.2 0.0000 1.5000
22:11 0.2 -1.4 88 1006.1 0.0000 1.5000
22:31 0.2 -1.2 89 1006 0.0000 1.5000
22:41 0.2 -1.2 89 1005.9 0.0000 1.5000
22:51 0.2 -1.2 89 1005.8 0.0000 1.5000
23:01 0.3 -1.1 89 1005.5 0.0000 1.5000
23:12 0.3 -1.3 88 1005.5 0.0000 1.5000
23:22 0.2 -1.4 88 1005.2 0.0000 1.5000
23:31 0.2 -1.2 89 1005.2 0.0000 1.5000
23:41 0.2 -1.4 88 1005.2 0.0000 1.5000

DAY STATISTIC

2018-11-18
TEMPERATURE
AVERAGE
1.1
HIGH
2.0
05:49
LOW
0.2
15:59
PRESSURE
AVERAGE
1009.4
HIGH
1012.9
00:29
LOW
1005.2
23:22
DEWPOINT
AVERAGE
0.8
HIGH
2.0
05:49
LOW
-1.4
22:11
HUMIDITY
AVERAGE
98
HIGH
100
03:55
LOW
88
22:11
PRECIPITATION
RAIN HOUR
0.5
RAIN DAY
1.5
TEMPERATURE (°C)
LOW
0.2
HIGH
2.0
AVERAGE
1.1
PRESSURE (hpa)
LOW
1005.2
HIGH
1012.9
AVERAGE
1009.4
DEVICE